sensor_id;sensor_type;location;lat;lon;timestamp;temperature;humidity
10123;DHT22;5101;49.038;8.710;2023-06-10T00:02:20;17.80;99.90
10123;DHT22;5101;49.038;8.710;2023-06-10T00:04:46;17.70;99.90
10123;DHT22;5101;49.038;8.710;2023-06-10T00:07:11;17.70;99.90
10123;DHT22;5101;49.038;8.710;2023-06-10T00:09:38;17.70;99.90
10123;DHT22;5101;49.038;8.710;2023-06-10T00:12:05;17.60;99.90
10123;DHT22;5101;49.038;8.710;2023-06-10T00:14:32;17.60;99.90
10123;DHT22;5101;49.038;8.710;2023-06-10T00:16:57;17.50;99.90
10123;DHT22;5101;49.038;8.710;2023-06-10T00:19:23;17.50;99.90
10123;DHT22;5101;49.038;8.710;2023-06-10T00:21:51;17.50;99.90
10123;DHT22;5101;49.038;8.710;2023-06-10T00:24:17;17.40;99.90
10123;DHT22;5101;49.038;8.710;2023-06-10T00:26:43;17.40;99.90
10123;DHT22;5101;49.038;8.710;2023-06-10T00:29:09;17.30;99.90
10123;DHT22;5101;49.038;8.710;2023-06-10T00:31:35;17.30;99.90
10123;DHT22;5101;49.038;8.710;2023-06-10T00:34:01;17.30;99.90
10123;DHT22;5101;49.038;8.710;2023-06-10T00:36:27;17.20;99.90
10123;DHT22;5101;49.038;8.710;2023-06-10T00:38:53;17.30;99.90
10123;DHT22;5101;49.038;8.710;2023-06-10T00:41:19;17.20;99.90
10123;DHT22;5101;49.038;8.710;2023-06-10T00:43:44;17.20;99.90
10123;DHT22;5101;49.038;8.710;2023-06-10T00:46:11;17.10;99.90
10123;DHT22;5101;49.038;8.710;2023-06-10T00:48:37;17.10;99.90
10123;DHT22;5101;49.038;8.710;2023-06-10T00:51:05;17.10;99.90
10123;DHT22;5101;49.038;8.710;2023-06-10T00:53:31;17.00;99.90
10123;DHT22;5101;49.038;8.710;2023-06-10T00:55:58;17.00;99.90
10123;DHT22;5101;49.038;8.710;2023-06-10T00:58:24;17.00;99.90
10123;DHT22;5101;49.038;8.710;2023-06-10T01:00:51;16.90;99.90
10123;DHT22;5101;49.038;8.710;2023-06-10T01:03:16;16.90;99.90
10123;DHT22;5101;49.038;8.710;2023-06-10T01:05:42;16.80;99.90
10123;DHT22;5101;49.038;8.710;2023-06-10T01:08:28;16.80;99.90
10123;DHT22;5101;49.038;8.710;2023-06-10T01:11:00;16.80;99.90
10123;DHT22;5101;49.038;8.710;2023-06-10T01:13:26;16.80;99.90
10123;DHT22;5101;49.038;8.710;2023-06-10T01:15:57;16.70;99.90
10123;DHT22;5101;49.038;8.710;2023-06-10T01:18:23;16.70;99.90
10123;DHT22;5101;49.038;8.710;2023-06-10T01:20:49;16.70;99.90
10123;DHT22;5101;49.038;8.710;2023-06-10T01:23:15;16.60;99.90
10123;DHT22;5101;49.038;8.710;2023-06-10T01:25:49;16.60;99.90
10123;DHT22;5101;49.038;8.710;2023-06-10T01:28:25;16.60;99.90
10123;DHT22;5101;49.038;8.710;2023-06-10T01:30:59;16.60;99.90
10123;DHT22;5101;49.038;8.710;2023-06-10T01:33:31;16.50;99.90
10123;DHT22;5101;49.038;8.710;2023-06-10T01:35:58;16.50;99.90
10123;DHT22;5101;49.038;8.710;2023-06-10T01:38:27;16.50;99.90
10123;DHT22;5101;49.038;8.710;2023-06-10T01:40:56;16.40;99.90
10123;DHT22;5101;49.038;8.710;2023-06-10T01:43:22;16.40;99.90
10123;DHT22;5101;49.038;8.710;2023-06-10T01:45:47;16.40;99.90
10123;DHT22;5101;49.038;8.710;2023-06-10T01:48:13;16.40;99.90
10123;DHT22;5101;49.038;8.710;2023-06-10T01:50:39;16.30;99.90
10123;DHT22;5101;49.038;8.710;2023-06-10T01:53:05;16.30;99.90
10123;DHT22;5101;49.038;8.710;2023-06-10T01:55:33;16.30;99.90
10123;DHT22;5101;49.038;8.710;2023-06-10T01:57:58;16.20;99.90
10123;DHT22;5101;49.038;8.710;2023-06-10T02:00:24;16.20;99.90
10123;DHT22;5101;49.038;8.710;2023-06-10T02:02:49;16.20;99.90
10123;DHT22;5101;49.038;8.710;2023-06-10T02:05:15;16.20;99.90
10123;DHT22;5101;49.038;8.710;2023-06-10T02:07:40;16.20;99.90
10123;DHT22;5101;49.038;8.710;2023-06-10T02:10:06;16.10;99.90
10123;DHT22;5101;49.038;8.710;2023-06-10T02:12:32;16.10;99.90
10123;DHT22;5101;49.038;8.710;2023-06-10T02:14:58;16.10;99.90
10123;DHT22;5101;49.038;8.710;2023-06-10T02:17:23;16.00;99.90
10123;DHT22;5101;49.038;8.710;2023-06-10T02:19:49;16.00;99.90
10123;DHT22;5101;49.038;8.710;2023-06-10T02:22:21;15.90;99.90
10123;DHT22;5101;49.038;8.710;2023-06-10T02:24:47;15.90;99.90
10123;DHT22;5101;49.038;8.710;2023-06-10T02:27:15;15.90;99.90
10123;DHT22;5101;49.038;8.710;2023-06-10T02:29:41;15.90;99.90
10123;DHT22;5101;49.038;8.710;2023-06-10T02:32:07;15.90;99.90
10123;DHT22;5101;49.038;8.710;2023-06-10T02:34:32;15.80;99.90
10123;DHT22;5101;49.038;8.710;2023-06-10T02:36:59;15.80;99.90
10123;DHT22;5101;49.038;8.710;2023-06-10T02:39:25;15.80;99.90
10123;DHT22;5101;49.038;8.710;2023-06-10T02:41:50;15.80;99.90
10123;DHT22;5101;49.038;8.710;2023-06-10T02:44:18;15.70;99.90
10123;DHT22;5101;49.038;8.710;2023-06-10T02:46:43;15.70;99.90
10123;DHT22;5101;49.038;8.710;2023-06-10T02:49:09;15.70;99.90
10123;DHT22;5101;49.038;8.710;2023-06-10T02:51:34;15.60;99.90
10123;DHT22;5101;49.038;8.710;2023-06-10T02:54:01;15.60;99.90
10123;DHT22;5101;49.038;8.710;2023-06-10T02:56:26;15.60;99.90
10123;DHT22;5101;49.038;8.710;2023-06-10T02:58:52;15.50;99.90
10123;DHT22;5101;49.038;8.710;2023-06-10T03:01:18;15.50;99.90
10123;DHT22;5101;49.038;8.710;2023-06-10T03:03:44;15.50;99.90
10123;DHT22;5101;49.038;8.710;2023-06-10T03:06:12;15.40;99.90
10123;DHT22;5101;49.038;8.710;2023-06-10T03:08:38;15.40;99.90
10123;DHT22;5101;49.038;8.710;2023-06-10T03:11:04;15.40;99.90
10123;DHT22;5101;49.038;8.710;2023-06-10T03:13:29;15.40;99.90
10123;DHT22;5101;49.038;8.710;2023-06-10T03:15:55;15.40;99.90
10123;DHT22;5101;49.038;8.710;2023-06-10T03:18:20;15.30;99.90
10123;DHT22;5101;49.038;8.710;2023-06-10T03:20:48;15.30;99.90
10123;DHT22;5101;49.038;8.710;2023-06-10T03:23:13;15.20;99.90
10123;DHT22;5101;49.038;8.710;2023-06-10T03:25:39;15.30;99.90
10123;DHT22;5101;49.038;8.710;2023-06-10T03:28:04;15.20;99.90
10123;DHT22;5101;49.038;8.710;2023-06-10T03:30:30;15.20;99.90
10123;DHT22;5101;49.038;8.710;2023-06-10T03:32:56;15.20;99.90
10123;DHT22;5101;49.038;8.710;2023-06-10T03:35:21;15.20;99.90
10123;DHT22;5101;49.038;8.710;2023-06-10T03:37:47;15.20;99.90
10123;DHT22;5101;49.038;8.710;2023-06-10T03:40:13;15.20;99.90
10123;DHT22;5101;49.038;8.710;2023-06-10T03:42:38;15.10;99.90
10123;DHT22;5101;49.038;8.710;2023-06-10T03:45:04;15.10;99.90
10123;DHT22;5101;49.038;8.710;2023-06-10T03:47:37;15.10;99.90
10123;DHT22;5101;49.038;8.710;2023-06-10T03:50:05;15.10;99.90
10123;DHT22;5101;49.038;8.710;2023-06-10T03:52:31;15.10;99.90
10123;DHT22;5101;49.038;8.710;2023-06-10T03:54:56;15.10;99.90
10123;DHT22;5101;49.038;8.710;2023-06-10T03:57:22;15.10;99.90
10123;DHT22;5101;49.038;8.710;2023-06-10T03:59:47;15.10;99.90
10123;DHT22;5101;49.038;8.710;2023-06-10T04:02:13;15.10;99.90
10123;DHT22;5101;49.038;8.710;2023-06-10T04:04:38;15.10;99.90
10123;DHT22;5101;49.038;8.710;2023-06-10T04:07:04;15.10;99.90
10123;DHT22;5101;49.038;8.710;2023-06-10T04:09:30;15.10;99.90
10123;DHT22;5101;49.038;8.710;2023-06-10T04:11:56;15.10;99.90
10123;DHT22;5101;49.038;8.710;2023-06-10T04:14:21;15.10;99.90
10123;DHT22;5101;49.038;8.710;2023-06-10T04:16:47;15.10;99.90
10123;DHT22;5101;49.038;8.710;2023-06-10T04:19:12;15.10;99.90
10123;DHT22;5101;49.038;8.710;2023-06-10T04:21:38;15.10;99.90
10123;DHT22;5101;49.038;8.710;2023-06-10T04:24:04;15.20;99.90
10123;DHT22;5101;49.038;8.710;2023-06-10T04:26:29;15.20;99.90
10123;DHT22;5101;49.038;8.710;2023-06-10T04:28:55;15.20;99.90
10123;DHT22;5101;49.038;8.710;2023-06-10T04:31:20;15.20;99.90
10123;DHT22;5101;49.038;8.710;2023-06-10T04:33:46;15.20;99.90
10123;DHT22;5101;49.038;8.710;2023-06-10T04:36:11;15.20;99.90
10123;DHT22;5101;49.038;8.710;2023-06-10T04:38:37;15.20;99.90
10123;DHT22;5101;49.038;8.710;2023-06-10T04:41:03;15.20;99.90
10123;DHT22;5101;49.038;8.710;2023-06-10T04:43:29;15.30;99.90
10123;DHT22;5101;49.038;8.710;2023-06-10T04:45:56;15.30;99.90
10123;DHT22;5101;49.038;8.710;2023-06-10T04:48:21;15.30;99.90
10123;DHT22;5101;49.038;8.710;2023-06-10T04:50:49;15.30;99.90
10123;DHT22;5101;49.038;8.710;2023-06-10T04:53:15;15.40;99.90
10123;DHT22;5101;49.038;8.710;2023-06-10T04:55:42;15.40;99.90
10123;DHT22;5101;49.038;8.710;2023-06-10T04:58:07;15.50;99.90
10123;DHT22;5101;49.038;8.710;2023-06-10T05:00:33;15.50;99.90
10123;DHT22;5101;49.038;8.710;2023-06-10T05:02:58;15.60;99.90
10123;DHT22;5101;49.038;8.710;2023-06-10T05:05:24;15.60;99.90
10123;DHT22;5101;49.038;8.710;2023-06-10T05:07:49;15.70;99.90
10123;DHT22;5101;49.038;8.710;2023-06-10T05:10:15;15.70;99.90
10123;DHT22;5101;49.038;8.710;2023-06-10T05:12:41;15.80;99.90
10123;DHT22;5101;49.038;8.710;2023-06-10T05:15:07;15.80;99.90
10123;DHT22;5101;49.038;8.710;2023-06-10T05:17:33;15.90;99.90
10123;DHT22;5101;49.038;8.710;2023-06-10T05:20:00;16.00;99.90
10123;DHT22;5101;49.038;8.710;2023-06-10T05:22:26;16.00;99.90
10123;DHT22;5101;49.038;8.710;2023-06-10T05:24:53;16.10;99.90
10123;DHT22;5101;49.038;8.710;2023-06-10T05:27:18;16.20;99.90
10123;DHT22;5101;49.038;8.710;2023-06-10T05:29:44;16.30;99.90
10123;DHT22;5101;49.038;8.710;2023-06-10T05:32:11;16.50;99.90
10123;DHT22;5101;49.038;8.710;2023-06-10T05:34:36;16.50;99.90
10123;DHT22;5101;49.038;8.710;2023-06-10T05:37:02;16.70;99.90
10123;DHT22;5101;49.038;8.710;2023-06-10T05:39:28;16.80;99.90
10123;DHT22;5101;49.038;8.710;2023-06-10T05:41:53;16.90;99.90
10123;DHT22;5101;49.038;8.710;2023-06-10T05:44:19;17.10;99.90
10123;DHT22;5101;49.038;8.710;2023-06-10T05:46:45;17.20;99.90
10123;DHT22;5101;49.038;8.710;2023-06-10T05:49:10;17.40;99.90
10123;DHT22;5101;49.038;8.710;2023-06-10T05:51:36;17.50;99.90
10123;DHT22;5101;49.038;8.710;2023-06-10T05:54:02;17.70;99.90
10123;DHT22;5101;49.038;8.710;2023-06-10T05:56:28;17.90;99.90
10123;DHT22;5101;49.038;8.710;2023-06-10T05:58:53;18.00;99.90
10123;DHT22;5101;49.038;8.710;2023-06-10T06:01:19;18.20;99.90
10123;DHT22;5101;49.038;8.710;2023-06-10T06:03:44;18.50;99.90
10123;DHT22;5101;49.038;8.710;2023-06-10T06:06:10;18.70;99.90
10123;DHT22;5101;49.038;8.710;2023-06-10T06:08:36;19.00;99.90
10123;DHT22;5101;49.038;8.710;2023-06-10T06:11:01;19.30;99.00
10123;DHT22;5101;49.038;8.710;2023-06-10T06:13:26;19.70;97.80
10123;DHT22;5101;49.038;8.710;2023-06-10T06:15:52;20.10;96.00
10123;DHT22;5101;49.038;8.710;2023-06-10T06:18:18;20.50;94.20
10123;DHT22;5101;49.038;8.710;2023-06-10T06:20:43;21.00;92.80
10123;DHT22;5101;49.038;8.710;2023-06-10T06:23:09;21.40;91.50
10123;DHT22;5101;49.038;8.710;2023-06-10T06:25:35;21.80;90.50
10123;DHT22;5101;49.038;8.710;2023-06-10T06:28:02;22.20;89.50
10123;DHT22;5101;49.038;8.710;2023-06-10T06:30:27;22.60;88.00
10123;DHT22;5101;49.038;8.710;2023-06-10T06:32:53;23.10;86.70
10123;DHT22;5101;49.038;8.710;2023-06-10T06:35:18;23.50;83.70
10123;DHT22;5101;49.038;8.710;2023-06-10T06:37:44;23.90;81.60
10123;DHT22;5101;49.038;8.710;2023-06-10T06:40:10;24.30;79.40
10123;DHT22;5101;49.038;8.710;2023-06-10T06:42:35;24.70;78.70
10123;DHT22;5101;49.038;8.710;2023-06-10T06:45:01;25.00;76.70
10123;DHT22;5101;49.038;8.710;2023-06-10T06:47:26;25.30;74.30
10123;DHT22;5101;49.038;8.710;2023-06-10T06:49:52;25.70;72.60
10123;DHT22;5101;49.038;8.710;2023-06-10T06:52:17;25.90;70.60
10123;DHT22;5101;49.038;8.710;2023-06-10T06:54:44;25.90;69.10
10123;DHT22;5101;49.038;8.710;2023-06-10T06:57:09;26.10;69.00
10123;DHT22;5101;49.038;8.710;2023-06-10T06:59:35;26.30;68.00
10123;DHT22;5101;49.038;8.710;2023-06-10T07:02:02;26.70;67.30
10123;DHT22;5101;49.038;8.710;2023-06-10T07:04:27;27.20;66.10
10123;DHT22;5101;49.038;8.710;2023-06-10T07:06:52;27.60;63.30
10123;DHT22;5101;49.038;8.710;2023-06-10T07:09:18;28.00;61.50
10123;DHT22;5101;49.038;8.710;2023-06-10T07:11:43;28.30;59.60
10123;DHT22;5101;49.038;8.710;2023-06-10T07:14:09;28.40;58.70
10123;DHT22;5101;49.038;8.710;2023-06-10T07:16:35;28.70;57.80
10123;DHT22;5101;49.038;8.710;2023-06-10T07:19:00;28.90;57.00
10123;DHT22;5101;49.038;8.710;2023-06-10T07:21:26;29.00;54.80
10123;DHT22;5101;49.038;8.710;2023-06-10T07:23:53;29.10;54.50
10123;DHT22;5101;49.038;8.710;2023-06-10T07:26:19;29.10;53.40
10123;DHT22;5101;49.038;8.710;2023-06-10T07:28:45;29.10;51.40
10123;DHT22;5101;49.038;8.710;2023-06-10T07:31:10;29.00;51.40
10123;DHT22;5101;49.038;8.710;2023-06-10T07:33:37;29.00;51.30
10123;DHT22;5101;49.038;8.710;2023-06-10T07:36:05;29.10;50.80
10123;DHT22;5101;49.038;8.710;2023-06-10T07:38:30;29.50;50.10
10123;DHT22;5101;49.038;8.710;2023-06-10T07:40:56;29.90;49.70
10123;DHT22;5101;49.038;8.710;2023-06-10T07:43:22;30.10;48.90
10123;DHT22;5101;49.038;8.710;2023-06-10T07:45:47;30.50;47.90
10123;DHT22;5101;49.038;8.710;2023-06-10T07:48:13;31.00;45.70
10123;DHT22;5101;49.038;8.710;2023-06-10T07:50:38;31.50;45.00
10123;DHT22;5101;49.038;8.710;2023-06-10T07:53:03;31.80;44.00
10123;DHT22;5101;49.038;8.710;2023-06-10T07:55:29;32.10;42.20
10123;DHT22;5101;49.038;8.710;2023-06-10T07:57:55;32.30;41.00
10123;DHT22;5101;49.038;8.710;2023-06-10T08:00:21;32.60;40.40
10123;DHT22;5101;49.038;8.710;2023-06-10T08:02:46;32.40;39.70
10123;DHT22;5101;49.038;8.710;2023-06-10T08:05:12;32.60;41.10
10123;DHT22;5101;49.038;8.710;2023-06-10T08:07:39;32.60;39.40
10123;DHT22;5101;49.038;8.710;2023-06-10T08:10:05;32.60;38.00
10123;DHT22;5101;49.038;8.710;2023-06-10T08:12:32;32.30;38.30
10123;DHT22;5101;49.038;8.710;2023-06-10T08:14:57;32.20;38.80
10123;DHT22;5101;49.038;8.710;2023-06-10T08:17:23;32.20;38.50
10123;DHT22;5101;49.038;8.710;2023-06-10T08:19:49;32.20;38.30
10123;DHT22;5101;49.038;8.710;2023-06-10T08:22:14;31.80;38.60
10123;DHT22;5101;49.038;8.710;2023-06-10T08:24:40;31.80;39.00
10123;DHT22;5101;49.038;8.710;2023-06-10T08:27:05;31.80;39.00
10123;DHT22;5101;49.038;8.710;2023-06-10T08:29:31;31.80;39.20
10123;DHT22;5101;49.038;8.710;2023-06-10T08:31:57;32.00;38.90
10123;DHT22;5101;49.038;8.710;2023-06-10T08:34:23;32.10;40.80
10123;DHT22;5101;49.038;8.710;2023-06-10T08:36:48;32.30;41.70
10123;DHT22;5101;49.038;8.710;2023-06-10T08:39:19;32.40;40.40
10123;DHT22;5101;49.038;8.710;2023-06-10T08:41:55;32.40;38.90
10123;DHT22;5101;49.038;8.710;2023-06-10T08:44:29;32.20;38.80
10123;DHT22;5101;49.038;8.710;2023-06-10T08:46:58;32.20;39.50
10123;DHT22;5101;49.038;8.710;2023-06-10T08:49:26;32.20;37.90
10123;DHT22;5101;49.038;8.710;2023-06-10T08:51:57;32.00;38.70
10123;DHT22;5101;49.038;8.710;2023-06-10T08:54:27;32.00;39.40
10123;DHT22;5101;49.038;8.710;2023-06-10T08:56:55;32.10;39.40
10123;DHT22;5101;49.038;8.710;2023-06-10T08:59:23;32.20;38.80
10123;DHT22;5101;49.038;8.710;2023-06-10T09:01:50;32.10;38.90
10123;DHT22;5101;49.038;8.710;2023-06-10T09:04:16;32.20;39.00
10123;DHT22;5101;49.038;8.710;2023-06-10T09:06:44;32.10;38.00
10123;DHT22;5101;49.038;8.710;2023-06-10T09:09:10;32.10;37.90
10123;DHT22;5101;49.038;8.710;2023-06-10T09:11:37;32.10;37.80
10123;DHT22;5101;49.038;8.710;2023-06-10T09:14:03;31.80;37.20
10123;DHT22;5101;49.038;8.710;2023-06-10T09:16:28;31.40;37.90
10123;DHT22;5101;49.038;8.710;2023-06-10T09:18:54;31.20;38.10
10123;DHT22;5101;49.038;8.710;2023-06-10T09:21:24;31.20;38.90
10123;DHT22;5101;49.038;8.710;2023-06-10T09:23:50;31.30;38.70
10123;DHT22;5101;49.038;8.710;2023-06-10T09:26:16;31.40;39.60
10123;DHT22;5101;49.038;8.710;2023-06-10T09:28:48;31.60;38.70
10123;DHT22;5101;49.038;8.710;2023-06-10T09:31:14;31.30;37.70
10123;DHT22;5101;49.038;8.710;2023-06-10T09:33:44;30.90;37.70
10123;DHT22;5101;49.038;8.710;2023-06-10T09:36:10;30.90;37.50
10123;DHT22;5101;49.038;8.710;2023-06-10T09:38:36;30.60;38.00
10123;DHT22;5101;49.038;8.710;2023-06-10T09:41:03;30.60;40.60
10123;DHT22;5101;49.038;8.710;2023-06-10T09:43:39;30.80;39.60
10123;DHT22;5101;49.038;8.710;2023-06-10T09:46:05;30.90;38.10
10123;DHT22;5101;49.038;8.710;2023-06-10T09:48:34;30.90;38.40
10123;DHT22;5101;49.038;8.710;2023-06-10T09:51:00;30.80;39.50
10123;DHT22;5101;49.038;8.710;2023-06-10T09:53:26;30.90;39.50
10123;DHT22;5101;49.038;8.710;2023-06-10T09:55:53;30.90;38.90
10123;DHT22;5101;49.038;8.710;2023-06-10T09:58:34;31.00;38.00
10123;DHT22;5101;49.038;8.710;2023-06-10T10:00:59;31.00;38.30
10123;DHT22;5101;49.038;8.710;2023-06-10T10:03:29;31.20;38.60
10123;DHT22;5101;49.038;8.710;2023-06-10T10:05:58;31.30;39.00
10123;DHT22;5101;49.038;8.710;2023-06-10T10:08:24;31.50;38.80
10123;DHT22;5101;49.038;8.710;2023-06-10T10:10:50;31.60;38.80
10123;DHT22;5101;49.038;8.710;2023-06-10T10:13:16;31.70;39.60
10123;DHT22;5101;49.038;8.710;2023-06-10T10:15:43;31.70;38.10
10123;DHT22;5101;49.038;8.710;2023-06-10T10:18:11;31.80;36.90
10123;DHT22;5101;49.038;8.710;2023-06-10T10:20:51;31.70;37.00
10123;DHT22;5101;49.038;8.710;2023-06-10T10:23:26;31.50;37.70
10123;DHT22;5101;49.038;8.710;2023-06-10T10:25:54;31.70;38.00
10123;DHT22;5101;49.038;8.710;2023-06-10T10:28:21;31.80;36.70
10123;DHT22;5101;49.038;8.710;2023-06-10T10:30:51;31.90;36.50
10123;DHT22;5101;49.038;8.710;2023-06-10T10:33:28;31.90;36.90
10123;DHT22;5101;49.038;8.710;2023-06-10T10:35:57;31.80;36.20
10123;DHT22;5101;49.038;8.710;2023-06-10T10:38:23;31.60;36.60
10123;DHT22;5101;49.038;8.710;2023-06-10T10:40:49;31.60;36.60
10123;DHT22;5101;49.038;8.710;2023-06-10T10:43:16;31.50;36.90
10123;DHT22;5101;49.038;8.710;2023-06-10T10:45:42;31.60;38.40
10123;DHT22;5101;49.038;8.710;2023-06-10T10:48:09;31.80;38.00
10123;DHT22;5101;49.038;8.710;2023-06-10T10:50:38;32.00;37.00
10123;DHT22;5101;49.038;8.710;2023-06-10T10:53:05;32.00;36.80
10123;DHT22;5101;49.038;8.710;2023-06-10T10:55:31;32.00;36.20
10123;DHT22;5101;49.038;8.710;2023-06-10T10:57:58;31.80;36.80
10123;DHT22;5101;49.038;8.710;2023-06-10T11:00:36;31.80;36.80
10123;DHT22;5101;49.038;8.710;2023-06-10T11:05:41;32.20;36.20
10123;DHT22;5101;49.038;8.710;2023-06-10T11:08:10;31.90;35.70
10123;DHT22;5101;49.038;8.710;2023-06-10T11:10:37;31.50;36.80
10123;DHT22;5101;49.038;8.710;2023-06-10T11:13:08;31.60;36.60
10123;DHT22;5101;49.038;8.710;2023-06-10T11:15:47;31.40;37.10
10123;DHT22;5101;49.038;8.710;2023-06-10T11:31:22;31.80;36.70
10123;DHT22;5101;49.038;8.710;2023-06-10T11:33:52;31.80;36.10
10123;DHT22;5101;49.038;8.710;2023-06-10T11:36:17;31.80;35.90
10123;DHT22;5101;49.038;8.710;2023-06-10T11:38:44;31.80;35.40
10123;DHT22;5101;49.038;8.710;2023-06-10T11:41:11;31.70;35.20
10123;DHT22;5101;49.038;8.710;2023-06-10T11:43:46;31.40;35.00
10123;DHT22;5101;49.038;8.710;2023-06-10T11:46:12;31.20;35.40
10123;DHT22;5101;49.038;8.710;2023-06-10T11:48:39;31.30;35.50
10123;DHT22;5101;49.038;8.710;2023-06-10T11:51:06;31.30;35.90
10123;DHT22;5101;49.038;8.710;2023-06-10T11:53:32;31.30;35.10
10123;DHT22;5101;49.038;8.710;2023-06-10T11:55:57;31.20;34.10
10123;DHT22;5101;49.038;8.710;2023-06-10T11:58:23;31.10;36.40
10123;DHT22;5101;49.038;8.710;2023-06-10T12:00:55;31.30;35.30
10123;DHT22;5101;49.038;8.710;2023-06-10T12:03:26;31.50;34.70
10123;DHT22;5101;49.038;8.710;2023-06-10T12:05:56;31.30;35.50
10123;DHT22;5101;49.038;8.710;2023-06-10T12:08:23;31.50;35.50
10123;DHT22;5101;49.038;8.710;2023-06-10T12:10:49;31.70;35.00
10123;DHT22;5101;49.038;8.710;2023-06-10T12:13:15;31.90;34.50
10123;DHT22;5101;49.038;8.710;2023-06-10T12:15:41;31.80;33.80
10123;DHT22;5101;49.038;8.710;2023-06-10T12:18:06;31.80;33.60
10123;DHT22;5101;49.038;8.710;2023-06-10T12:20:32;31.80;34.00
10123;DHT22;5101;49.038;8.710;2023-06-10T12:23:09;31.80;33.60
10123;DHT22;5101;49.038;8.710;2023-06-10T12:25:35;31.80;33.80
10123;DHT22;5101;49.038;8.710;2023-06-10T12:28:02;31.60;33.90
10123;DHT22;5101;49.038;8.710;2023-06-10T12:30:28;31.50;33.40
10123;DHT22;5101;49.038;8.710;2023-06-10T12:32:54;31.60;33.80
10123;DHT22;5101;49.038;8.710;2023-06-10T12:35:24;31.50;33.00
10123;DHT22;5101;49.038;8.710;2023-06-10T12:40:30;31.20;33.20
10123;DHT22;5101;49.038;8.710;2023-06-10T12:43:00;31.30;33.60
10123;DHT22;5101;49.038;8.710;2023-06-10T12:45:30;31.30;33.40
10123;DHT22;5101;49.038;8.710;2023-06-10T12:50:40;31.00;33.30
10123;DHT22;5101;49.038;8.710;2023-06-10T12:53:06;31.20;33.40
10123;DHT22;5101;49.038;8.710;2023-06-10T12:55:32;31.10;32.80
10123;DHT22;5101;49.038;8.710;2023-06-10T12:57:59;31.20;33.50
10123;DHT22;5101;49.038;8.710;2023-06-10T13:00:26;31.30;34.30
10123;DHT22;5101;49.038;8.710;2023-06-10T13:02:53;31.40;34.10
10123;DHT22;5101;49.038;8.710;2023-06-10T13:05:19;31.50;33.70
10123;DHT22;5101;49.038;8.710;2023-06-10T13:07:46;31.20;33.10
10123;DHT22;5101;49.038;8.710;2023-06-10T13:10:15;31.10;33.50
10123;DHT22;5101;49.038;8.710;2023-06-10T13:12:42;31.10;33.60
10123;DHT22;5101;49.038;8.710;2023-06-10T13:15:08;31.10;34.20
10123;DHT22;5101;49.038;8.710;2023-06-10T13:17:33;31.00;34.70
10123;DHT22;5101;49.038;8.710;2023-06-10T13:20:00;30.90;35.30
10123;DHT22;5101;49.038;8.710;2023-06-10T13:22:26;31.00;34.70
10123;DHT22;5101;49.038;8.710;2023-06-10T13:24:52;30.90;34.50
10123;DHT22;5101;49.038;8.710;2023-06-10T13:27:18;30.90;35.60
10123;DHT22;5101;49.038;8.710;2023-06-10T13:29:43;30.90;34.80
10123;DHT22;5101;49.038;8.710;2023-06-10T13:32:09;30.90;34.40
10123;DHT22;5101;49.038;8.710;2023-06-10T13:34:35;31.00;34.60
10123;DHT22;5101;49.038;8.710;2023-06-10T13:37:01;31.00;34.40
10123;DHT22;5101;49.038;8.710;2023-06-10T13:39:26;31.00;33.90
10123;DHT22;5101;49.038;8.710;2023-06-10T13:41:52;31.10;35.10
10123;DHT22;5101;49.038;8.710;2023-06-10T13:44:18;31.10;34.20
10123;DHT22;5101;49.038;8.710;2023-06-10T13:46:43;31.00;33.80
10123;DHT22;5101;49.038;8.710;2023-06-10T13:49:09;31.00;34.20
10123;DHT22;5101;49.038;8.710;2023-06-10T13:51:34;31.00;33.50
10123;DHT22;5101;49.038;8.710;2023-06-10T13:54:00;30.90;33.00
10123;DHT22;5101;49.038;8.710;2023-06-10T13:56:26;30.80;34.00
10123;DHT22;5101;49.038;8.710;2023-06-10T13:58:51;30.80;33.70
10123;DHT22;5101;49.038;8.710;2023-06-10T14:01:17;30.80;33.70
10123;DHT22;5101;49.038;8.710;2023-06-10T14:03:42;30.80;34.10
10123;DHT22;5101;49.038;8.710;2023-06-10T14:06:07;30.70;33.80
10123;DHT22;5101;49.038;8.710;2023-06-10T14:08:34;30.50;33.70
10123;DHT22;5101;49.038;8.710;2023-06-10T14:11:00;30.40;34.60
10123;DHT22;5101;49.038;8.710;2023-06-10T14:13:25;30.30;34.60
10123;DHT22;5101;49.038;8.710;2023-06-10T14:15:50;30.30;34.50
10123;DHT22;5101;49.038;8.710;2023-06-10T14:18:16;30.30;34.20
10123;DHT22;5101;49.038;8.710;2023-06-10T14:20:41;30.30;33.70
10123;DHT22;5101;49.038;8.710;2023-06-10T14:23:07;30.30;33.80
10123;DHT22;5101;49.038;8.710;2023-06-10T14:25:32;30.30;34.40
10123;DHT22;5101;49.038;8.710;2023-06-10T14:27:58;30.20;34.80
10123;DHT22;5101;49.038;8.710;2023-06-10T14:30:23;30.20;35.10
10123;DHT22;5101;49.038;8.710;2023-06-10T14:32:49;30.10;34.50
10123;DHT22;5101;49.038;8.710;2023-06-10T14:35:14;30.10;34.90
10123;DHT22;5101;49.038;8.710;2023-06-10T14:37:40;30.00;35.10
10123;DHT22;5101;49.038;8.710;2023-06-10T14:40:06;30.00;35.00
10123;DHT22;5101;49.038;8.710;2023-06-10T14:42:31;29.90;35.40
10123;DHT22;5101;49.038;8.710;2023-06-10T14:44:57;29.80;35.50
10123;DHT22;5101;49.038;8.710;2023-06-10T14:47:23;29.80;35.00
10123;DHT22;5101;49.038;8.710;2023-06-10T14:49:49;29.80;35.70
10123;DHT22;5101;49.038;8.710;2023-06-10T14:52:15;29.80;36.00
10123;DHT22;5101;49.038;8.710;2023-06-10T14:54:41;29.70;35.40
10123;DHT22;5101;49.038;8.710;2023-06-10T14:57:06;29.70;35.60
10123;DHT22;5101;49.038;8.710;2023-06-10T14:59:32;29.70;35.30
10123;DHT22;5101;49.038;8.710;2023-06-10T15:01:58;29.70;36.20
10123;DHT22;5101;49.038;8.710;2023-06-10T15:04:26;29.70;36.00
10123;DHT22;5101;49.038;8.710;2023-06-10T15:06:51;29.70;35.20
10123;DHT22;5101;49.038;8.710;2023-06-10T15:09:17;29.70;35.00
10123;DHT22;5101;49.038;8.710;2023-06-10T15:11:43;29.60;35.40
10123;DHT22;5101;49.038;8.710;2023-06-10T15:14:08;29.60;35.30
10123;DHT22;5101;49.038;8.710;2023-06-10T15:16:33;29.70;35.70
10123;DHT22;5101;49.038;8.710;2023-06-10T15:18:59;29.80;35.70
10123;DHT22;5101;49.038;8.710;2023-06-10T15:21:24;29.80;35.80
10123;DHT22;5101;49.038;8.710;2023-06-10T15:23:50;29.80;34.90
10123;DHT22;5101;49.038;8.710;2023-06-10T15:26:16;29.70;34.50
10123;DHT22;5101;49.038;8.710;2023-06-10T15:28:42;29.70;34.40
10123;DHT22;5101;49.038;8.710;2023-06-10T15:31:07;29.70;34.60
10123;DHT22;5101;49.038;8.710;2023-06-10T15:33:33;29.70;34.20
10123;DHT22;5101;49.038;8.710;2023-06-10T15:35:58;29.70;34.60
10123;DHT22;5101;49.038;8.710;2023-06-10T15:38:24;29.80;34.40
10123;DHT22;5101;49.038;8.710;2023-06-10T15:40:50;29.80;34.60
10123;DHT22;5101;49.038;8.710;2023-06-10T15:43:15;29.80;34.10
10123;DHT22;5101;49.038;8.710;2023-06-10T15:45:41;29.80;33.60
10123;DHT22;5101;49.038;8.710;2023-06-10T15:48:06;29.80;33.60
10123;DHT22;5101;49.038;8.710;2023-06-10T15:50:32;29.70;33.80
10123;DHT22;5101;49.038;8.710;2023-06-10T15:52:57;29.70;33.90
10123;DHT22;5101;49.038;8.710;2023-06-10T15:55:23;29.80;33.90
10123;DHT22;5101;49.038;8.710;2023-06-10T15:57:48;29.60;34.20
10123;DHT22;5101;49.038;8.710;2023-06-10T16:00:15;29.70;34.60
10123;DHT22;5101;49.038;8.710;2023-06-10T16:02:41;29.80;34.50